createdAt,value
2023-07-07T00:00:02.178Z,490.26
2023-07-07T00:00:12.182Z,490.25
2023-07-07T00:00:22.185Z,490.28
2023-07-07T00:00:32.181Z,490.21
2023-07-07T00:00:42.212Z,490.24
2023-07-07T00:00:52.188Z,490.15
2023-07-07T00:01:02.199Z,490.16
2023-07-07T00:01:12.189Z,490.11
2023-07-07T00:01:22.314Z,490.12
2023-07-07T00:01:32.256Z,490.04
2023-07-07T00:01:52.216Z,490.00
2023-07-07T00:02:02.236Z,490.03
2023-07-07T00:02:12.229Z,490.01
2023-07-07T00:02:22.214Z,490.00
2023-07-07T00:02:32.256Z,489.96
2023-07-07T00:02:42.219Z,489.89
2023-07-07T00:02:52.302Z,489.90
2023-07-07T00:03:02.214Z,489.95
2023-07-07T00:03:12.269Z,489.86
2023-07-07T00:03:22.201Z,489.92
2023-07-07T00:03:42.238Z,489.87
2023-07-07T00:03:52.284Z,489.84
2023-07-07T00:04:02.239Z,489.78
2023-07-07T00:04:12.256Z,489.81
2023-07-07T00:04:22.217Z,489.73
2023-07-07T00:04:32.316Z,489.77
2023-07-07T00:04:42.196Z,489.70
2023-07-07T00:05:02.201Z,489.65
2023-07-07T00:05:12.225Z,489.68
2023-07-07T00:05:22.204Z,489.64
2023-07-07T00:05:32.212Z,489.65
2023-07-07T00:05:42.210Z,489.59
2023-07-07T00:05:52.219Z,489.62
2023-07-07T00:06:02.218Z,489.57
2023-07-07T00:06:12.209Z,489.64
2023-07-07T00:06:22.215Z,489.63
2023-07-07T00:06:32.217Z,489.59
2023-07-07T00:06:42.204Z,489.63
2023-07-07T00:07:02.216Z,489.52
2023-07-07T00:07:12.225Z,489.57
2023-07-07T00:07:22.220Z,489.52
2023-07-07T00:07:32.216Z,489.55
2023-07-07T00:07:42.241Z,489.52
2023-07-07T00:07:52.234Z,489.55
2023-07-07T00:08:02.223Z,489.51
2023-07-07T00:08:12.240Z,489.46
2023-07-07T00:08:22.218Z,489.52
2023-07-07T00:08:32.205Z,489.46
2023-07-07T00:08:42.221Z,489.54
2023-07-07T00:09:02.228Z,489.48
2023-07-07T00:09:12.220Z,489.48
2023-07-07T00:09:22.218Z,489.48
2023-07-07T00:09:32.224Z,489.54
2023-07-07T00:09:42.229Z,489.46
2023-07-07T00:09:52.244Z,489.50
2023-07-07T00:10:02.234Z,489.46
2023-07-07T00:10:12.252Z,489.54
2023-07-07T00:10:22.258Z,489.50
2023-07-07T00:10:32.228Z,489.52
2023-07-07T00:10:42.227Z,489.58
2023-07-07T00:10:52.246Z,489.56
2023-07-07T00:11:02.241Z,489.63
2023-07-07T00:11:12.233Z,489.55
2023-07-07T00:11:32.242Z,489.56
2023-07-07T00:11:42.241Z,489.58
2023-07-07T00:11:52.236Z,489.56
2023-07-07T00:12:02.258Z,489.62
2023-07-07T00:12:12.236Z,489.61
2023-07-07T00:12:22.247Z,489.57
2023-07-07T00:12:32.245Z,489.58
2023-07-07T00:12:42.239Z,489.55
2023-07-07T00:12:52.259Z,489.52
2023-07-07T00:13:02.259Z,489.63
2023-07-07T00:13:12.253Z,489.67
2023-07-07T00:13:22.253Z,489.64
2023-07-07T00:13:32.290Z,489.71
2023-07-07T00:13:42.281Z,489.67
2023-07-07T00:14:02.285Z,489.65
2023-07-07T00:14:12.258Z,489.60
2023-07-07T00:14:22.250Z,489.60
2023-07-07T00:14:32.262Z,489.70
2023-07-07T00:14:42.246Z,489.68
2023-07-07T00:14:52.266Z,489.76
2023-07-07T00:15:02.271Z,489.77
2023-07-07T00:15:12.248Z,489.78
2023-07-07T00:15:22.247Z,489.83
2023-07-07T00:15:32.260Z,489.81
2023-07-07T00:15:42.257Z,489.77
2023-07-07T00:15:52.256Z,489.87
2023-07-07T00:16:02.258Z,489.82
2023-07-07T00:16:12.263Z,489.90
2023-07-07T00:16:22.306Z,489.93
2023-07-07T00:16:32.280Z,489.90
2023-07-07T00:16:42.275Z,489.97
2023-07-07T00:16:52.377Z,489.97
2023-07-07T00:17:02.273Z,489.93
2023-07-07T00:17:12.257Z,490.01
2023-07-07T00:17:32.331Z,489.97
2023-07-07T00:17:42.296Z,490.02
2023-07-07T00:17:52.324Z,489.95
2023-07-07T00:18:02.333Z,490.03
2023-07-07T00:18:12.258Z,490.03
2023-07-07T00:18:22.258Z,490.00
2023-07-07T00:18:32.267Z,489.97
2023-07-07T00:18:52.264Z,489.99
2023-07-07T00:19:02.271Z,490.03
2023-07-07T00:19:12.268Z,489.96
2023-07-07T00:19:22.272Z,490.00
2023-07-07T00:19:32.268Z,490.01
2023-07-07T00:19:42.268Z,489.96
2023-07-07T00:19:52.271Z,490.01
2023-07-07T00:20:12.263Z,490.01
2023-07-07T00:20:22.272Z,490.02
2023-07-07T00:20:32.278Z,489.97
2023-07-07T00:20:42.273Z,490.03
2023-07-07T00:20:52.269Z,489.95
2023-07-07T00:21:02.269Z,490.02
2023-07-07T00:21:22.275Z,489.97
2023-07-07T00:21:32.272Z,489.93
2023-07-07T00:21:42.275Z,489.97
2023-07-07T00:21:52.276Z,489.97
2023-07-07T00:22:02.286Z,489.92
2023-07-07T00:22:12.272Z,490.00
2023-07-07T00:22:22.272Z,489.97
2023-07-07T00:22:32.270Z,490.00
2023-07-07T00:22:42.278Z,490.01
2023-07-07T00:22:52.282Z,489.99
2023-07-07T00:23:12.271Z,489.98
2023-07-07T00:23:22.275Z,489.97
2023-07-07T00:23:32.278Z,490.01
2023-07-07T00:23:42.278Z,489.94
2023-07-07T00:23:52.280Z,489.95
2023-07-07T00:24:02.279Z,489.99
2023-07-07T00:24:12.280Z,489.95
2023-07-07T00:24:22.276Z,489.91
2023-07-07T00:24:32.290Z,489.96
2023-07-07T00:24:42.296Z,489.89
2023-07-07T00:24:52.298Z,489.91
2023-07-07T00:25:02.285Z,489.95
2023-07-07T00:25:12.303Z,489.98
2023-07-07T00:25:32.290Z,489.96
2023-07-07T00:25:42.291Z,489.95
2023-07-07T00:25:52.287Z,489.89
2023-07-07T00:26:02.288Z,489.96
2023-07-07T00:26:12.277Z,489.95
2023-07-07T00:26:22.289Z,489.91
2023-07-07T00:26:42.300Z,489.96
2023-07-07T00:26:52.287Z,489.93
2023-07-07T00:27:02.286Z,489.97
2023-07-07T00:27:12.295Z,489.98
2023-07-07T00:27:22.301Z,489.92
2023-07-07T00:27:32.291Z,489.93
2023-07-07T00:27:42.311Z,490.00
2023-07-07T00:27:52.310Z,489.96
2023-07-07T00:28:02.301Z,490.03
2023-07-07T00:28:12.283Z,490.03
2023-07-07T00:28:22.300Z,490.03
2023-07-07T00:28:32.293Z,490.00
2023-07-07T00:28:52.797Z,490.02
2023-07-07T00:29:02.316Z,489.96
2023-07-07T00:29:12.296Z,490.05
2023-07-07T00:29:22.302Z,490.01
2023-07-07T00:29:32.316Z,490.05
2023-07-07T00:29:42.307Z,490.14
2023-07-07T00:30:02.300Z,490.12
2023-07-07T00:30:12.363Z,490.07
2023-07-07T00:30:22.312Z,490.06
2023-07-07T00:30:32.368Z,490.05
2023-07-07T00:30:42.336Z,490.13
2023-07-07T00:30:52.325Z,490.09
2023-07-07T00:31:02.553Z,490.15
2023-07-07T00:31:12.401Z,490.09
2023-07-07T00:31:22.409Z,490.15
2023-07-07T00:31:32.312Z,490.11
2023-07-07T00:31:42.316Z,490.15
2023-07-07T00:31:52.312Z,490.13
2023-07-07T00:32:02.322Z,490.13
2023-07-07T00:32:22.499Z,490.14
2023-07-07T00:32:32.423Z,490.09
2023-07-07T00:32:42.347Z,490.15
2023-07-07T00:32:52.397Z,490.13
2023-07-07T00:33:02.360Z,490.12
2023-07-07T00:33:12.318Z,490.15
2023-07-07T00:33:22.318Z,490.11
2023-07-07T00:33:32.323Z,490.08
2023-07-07T00:33:42.340Z,490.13
2023-07-07T00:34:02.330Z,490.12
2023-07-07T00:34:12.329Z,490.13
2023-07-07T00:34:22.342Z,490.09
2023-07-07T00:34:32.338Z,490.15
2023-07-07T00:34:42.327Z,490.17
2023-07-07T00:34:52.320Z,490.15
2023-07-07T00:35:12.339Z,490.05
2023-07-07T00:35:22.329Z,489.99
2023-07-07T00:35:32.331Z,489.98
2023-07-07T00:35:42.329Z,490.03
2023-07-07T00:35:52.330Z,490.08
2023-07-07T00:36:02.338Z,490.04
2023-07-07T00:36:12.341Z,490.04
2023-07-07T00:36:22.337Z,490.05
2023-07-07T00:36:32.336Z,490.01
2023-07-07T00:36:42.333Z,490.06
2023-07-07T00:36:52.332Z,490.08
2023-07-07T00:37:02.335Z,489.99
2023-07-07T00:37:22.335Z,490.02
2023-07-07T00:37:32.334Z,490.02
2023-07-07T00:37:42.345Z,490.08
2023-07-07T00:37:52.356Z,490.07
2023-07-07T00:38:02.340Z,490.11
2023-07-07T00:38:12.349Z,490.07
2023-07-07T00:38:22.348Z,490.01
2023-07-07T00:38:32.340Z,490.08
2023-07-07T00:38:52.372Z,490.02
2023-07-07T00:39:02.340Z,490.06
2023-07-07T00:39:12.358Z,490.02
2023-07-07T00:39:22.349Z,490.09
2023-07-07T00:39:32.344Z,490.11
2023-07-07T00:39:42.345Z,490.03
2023-07-07T00:40:02.400Z,490.05
2023-07-07T00:40:12.346Z,490.14
2023-07-07T00:40:22.348Z,490.14
2023-07-07T00:40:32.352Z,490.13
2023-07-07T00:40:42.349Z,490.13
2023-07-07T00:40:52.358Z,490.19
2023-07-07T00:41:02.370Z,490.15
2023-07-07T00:41:12.358Z,490.18
2023-07-07T00:41:22.350Z,490.09
2023-07-07T00:41:32.354Z,490.14
2023-07-07T00:41:42.389Z,490.10
2023-07-07T00:41:52.363Z,490.14
2023-07-07T00:42:02.364Z,490.09
2023-07-07T00:42:12.359Z,490.13
2023-07-07T00:42:22.362Z,490.13
2023-07-07T00:42:32.364Z,490.09
2023-07-07T00:42:42.362Z,490.11
2023-07-07T00:42:52.375Z,490.13
2023-07-07T00:43:02.344Z,490.09
2023-07-07T00:43:12.381Z,490.12
2023-07-07T00:43:32.369Z,490.09
2023-07-07T00:43:42.362Z,490.07
2023-07-07T00:43:52.401Z,490.05
2023-07-07T00:44:02.367Z,490.07
2023-07-07T00:44:12.369Z,490.06
2023-07-07T00:44:22.369Z,490.09
2023-07-07T00:44:32.363Z,490.10
2023-07-07T00:44:42.369Z,490.04
2023-07-07T00:44:52.368Z,490.08
2023-07-07T00:45:02.368Z,490.05
2023-07-07T00:45:12.420Z,490.09
2023-07-07T00:45:22.386Z,490.06
2023-07-07T00:45:32.372Z,490.10
2023-07-07T00:45:42.424Z,490.08
2023-07-07T00:45:52.368Z,490.05
2023-07-07T00:46:02.405Z,490.09
2023-07-07T00:46:22.395Z,490.04
2023-07-07T00:46:32.421Z,490.10
2023-07-07T00:46:42.477Z,490.11
2023-07-07T00:46:52.458Z,490.11
2023-07-07T00:47:03.307Z,490.10
2023-07-07T00:47:12.379Z,490.01
2023-07-07T00:47:22.419Z,490.07
2023-07-07T00:47:32.395Z,490.03
2023-07-07T00:47:42.423Z,490.08
2023-07-07T00:47:52.431Z,490.06
2023-07-07T00:48:12.388Z,490.13
2023-07-07T00:48:22.391Z,490.10
2023-07-07T00:48:32.388Z,490.14
2023-07-07T00:48:42.387Z,490.13
2023-07-07T00:48:52.413Z,490.14
2023-07-07T00:49:02.400Z,490.10
2023-07-07T00:49:12.406Z,490.19
2023-07-07T00:49:32.390Z,490.22
2023-07-07T00:49:42.392Z,490.21
2023-07-07T00:49:52.409Z,490.18
2023-07-07T00:50:02.391Z,490.27
2023-07-07T00:50:12.388Z,490.23
2023-07-07T00:50:22.400Z,490.28
2023-07-07T00:50:32.408Z,490.27
2023-07-07T00:50:42.406Z,490.28
2023-07-07T00:50:52.399Z,490.25
2023-07-07T00:51:02.409Z,490.34
2023-07-07T00:51:12.406Z,490.28
2023-07-07T00:51:22.404Z,490.38
2023-07-07T00:51:32.416Z,490.34
2023-07-07T00:51:42.435Z,490.35
2023-07-07T00:51:52.408Z,490.37
2023-07-07T00:52:12.405Z,490.37
2023-07-07T00:52:22.410Z,490.49
2023-07-07T00:52:32.403Z,490.48
2023-07-07T00:52:42.454Z,490.47
2023-07-07T00:52:52.423Z,490.52
2023-07-07T00:53:02.431Z,490.50
2023-07-07T00:53:22.415Z,490.52
2023-07-07T00:53:32.418Z,490.54
2023-07-07T00:53:42.416Z,490.53
2023-07-07T00:53:52.411Z,490.49
2023-07-07T00:54:02.415Z,490.47
2023-07-07T00:54:12.419Z,490.53
2023-07-07T00:54:22.416Z,490.48
2023-07-07T00:54:32.428Z,490.50
2023-07-07T00:54:42.435Z,490.46
2023-07-07T00:55:02.417Z,490.41
2023-07-07T00:55:12.421Z,490.40
2023-07-07T00:55:22.420Z,490.41
2023-07-07T00:55:32.408Z,490.41
2023-07-07T00:55:42.453Z,490.37
2023-07-07T00:55:52.427Z,490.36
2023-07-07T00:56:02.421Z,490.40
2023-07-07T00:56:12.458Z,490.34
2023-07-07T00:56:22.444Z,490.36
2023-07-07T00:56:32.420Z,490.39
2023-07-07T00:56:42.429Z,490.41
2023-07-07T00:56:52.413Z,490.39
2023-07-07T00:57:02.431Z,490.34
2023-07-07T00:57:22.440Z,490.35
2023-07-07T00:57:32.428Z,490.39
2023-07-07T00:57:42.439Z,490.44
2023-07-07T00:57:52.440Z,490.43
2023-07-07T00:58:02.430Z,490.43
2023-07-07T00:58:12.435Z,490.45
2023-07-07T00:58:22.434Z,490.44
2023-07-07T00:58:32.425Z,490.52
2023-07-07T00:58:52.425Z,490.54
2023-07-07T00:59:02.430Z,490.48
2023-07-07T00:59:12.433Z,490.50
2023-07-07T00:59:22.435Z,490.57
2023-07-07T00:59:32.431Z,490.59
2023-07-07T00:59:42.454Z,490.57
2023-07-07T00:59:52.451Z,490.59
2023-07-07T01:00:02.450Z,490.59
2023-07-07T01:00:12.440Z,490.55
2023-07-07T01:00:22.473Z,490.58
2023-07-07T01:00:32.445Z,490.58
2023-07-07T01:00:42.505Z,490.52
2023-07-07T01:00:52.469Z,490.54
2023-07-07T01:01:02.488Z,490.48
2023-07-07T01:01:12.500Z,490.51
2023-07-07T01:01:22.503Z,490.44
2023-07-07T01:01:32.533Z,490.45
2023-07-07T01:01:42.582Z,490.42
2023-07-07T01:01:52.534Z,490.39
2023-07-07T01:02:02.474Z,490.43
2023-07-07T01:02:12.473Z,490.37
2023-07-07T01:02:22.535Z,490.32
2023-07-07T01:02:32.561Z,490.35
2023-07-07T01:02:42.487Z,490.29
2023-07-07T01:02:52.504Z,490.30
2023-07-07T01:03:02.527Z,490.33
2023-07-07T01:03:12.479Z,490.28
2023-07-07T01:03:22.476Z,490.26
2023-07-07T01:03:32.454Z,490.31
2023-07-07T01:03:52.461Z,490.35
2023-07-07T01:04:02.491Z,490.26
2023-07-07T01:04:12.511Z,490.26
2023-07-07T01:04:22.503Z,490.28
2023-07-07T01:04:32.516Z,490.22
2023-07-07T01:04:42.543Z,490.22
2023-07-07T01:04:52.557Z,490.18
2023-07-07T01:05:02.469Z,490.14
2023-07-07T01:05:12.461Z,490.19
2023-07-07T01:05:22.466Z,490.17
2023-07-07T01:05:42.472Z,490.09
2023-07-07T01:05:52.469Z,490.10
2023-07-07T01:06:02.478Z,490.02
2023-07-07T01:06:12.461Z,490.00
2023-07-07T01:06:22.462Z,490.00
2023-07-07T01:06:32.465Z,489.98
2023-07-07T01:06:42.468Z,490.02
2023-07-07T01:06:52.477Z,489.92
2023-07-07T01:07:12.469Z,489.88
2023-07-07T01:07:22.475Z,489.92
2023-07-07T01:07:32.470Z,489.87
2023-07-07T01:07:42.479Z,489.92
2023-07-07T01:07:52.486Z,489.83
2023-07-07T01:08:02.482Z,489.90
2023-07-07T01:08:12.476Z,489.83
2023-07-07T01:08:22.474Z,489.81
2023-07-07T01:08:32.475Z,489.84
2023-07-07T01:08:42.485Z,489.80
2023-07-07T01:09:02.490Z,489.85
2023-07-07T01:09:12.500Z,489.89
2023-07-07T01:09:22.483Z,489.84
2023-07-07T01:09:32.485Z,489.80
2023-07-07T01:09:42.487Z,489.81
2023-07-07T01:09:52.494Z,489.82
2023-07-07T01:10:02.481Z,489.77
2023-07-07T01:10:12.494Z,489.70
2023-07-07T01:10:22.514Z,489.77
2023-07-07T01:10:32.494Z,489.78
2023-07-07T01:10:42.490Z,489.72
2023-07-07T01:10:52.488Z,489.76
2023-07-07T01:11:02.504Z,489.71
2023-07-07T01:11:12.513Z,489.70
2023-07-07T01:11:32.507Z,489.65
2023-07-07T01:11:42.503Z,489.63
2023-07-07T01:11:52.491Z,489.73
2023-07-07T01:12:02.531Z,489.64
2023-07-07T01:12:12.500Z,489.67
2023-07-07T01:12:22.501Z,489.70
2023-07-07T01:12:32.518Z,489.68
2023-07-07T01:12:42.497Z,489.70
2023-07-07T01:12:52.510Z,489.72
2023-07-07T01:13:12.522Z,489.60
2023-07-07T01:13:22.534Z,489.66
2023-07-07T01:13:32.539Z,489.64
2023-07-07T01:13:42.506Z,489.63
2023-07-07T01:13:52.522Z,489.68
2023-07-07T01:14:02.661Z,489.63
2023-07-07T01:14:12.503Z,489.64
2023-07-07T01:14:22.515Z,489.70
2023-07-07T01:14:32.517Z,489.72
2023-07-07T01:14:42.517Z,489.65
2023-07-07T01:14:52.515Z,489.60
2023-07-07T01:15:02.512Z,489.68
2023-07-07T01:15:12.509Z,489.66
2023-07-07T01:15:22.549Z,489.64
2023-07-07T01:15:32.510Z,489.70
2023-07-07T01:15:42.513Z,489.67
2023-07-07T01:15:52.526Z,489.70
2023-07-07T01:16:02.533Z,489.69
2023-07-07T01:16:22.608Z,489.67
2023-07-07T01:16:32.631Z,489.63
2023-07-07T01:16:42.536Z,489.67
2023-07-07T01:16:52.600Z,489.60
2023-07-07T01:17:02.533Z,489.58
2023-07-07T01:17:12.524Z,489.65
2023-07-07T01:17:22.545Z,489.61
2023-07-07T01:17:32.543Z,489.67
2023-07-07T01:17:42.537Z,489.62
2023-07-07T01:17:52.587Z,489.66
2023-07-07T01:18:12.520Z,489.62
2023-07-07T01:18:22.520Z,489.57
2023-07-07T01:18:32.518Z,489.57
2023-07-07T01:18:42.523Z,489.58
2023-07-07T01:18:52.529Z,489.64
2023-07-07T01:19:02.526Z,489.61
2023-07-07T01:19:12.524Z,489.66
2023-07-07T01:19:32.534Z,489.64
2023-07-07T01:19:42.534Z,489.68
2023-07-07T01:19:52.541Z,489.69
2023-07-07T01:20:02.530Z,489.62
2023-07-07T01:20:12.551Z,489.63
2023-07-07T01:20:22.539Z,489.56
2023-07-07T01:20:32.565Z,489.63
2023-07-07T01:20:52.531Z,489.66
2023-07-07T01:21:02.886Z,489.63
2023-07-07T01:21:12.534Z,489.70
2023-07-07T01:21:22.538Z,489.60
2023-07-07T01:21:32.533Z,489.58
2023-07-07T01:21:42.531Z,489.51
2023-07-07T01:21:52.535Z,489.61
2023-07-07T01:22:02.557Z,489.59
2023-07-07T01:22:12.536Z,489.53
2023-07-07T01:22:22.545Z,489.52
2023-07-07T01:22:32.541Z,489.52
2023-07-07T01:22:42.543Z,489.50
2023-07-07T01:22:52.565Z,489.52
2023-07-07T01:23:02.545Z,489.48
2023-07-07T01:23:12.549Z,489.48
2023-07-07T01:23:22.563Z,489.55
2023-07-07T01:23:32.560Z,489.51
2023-07-07T01:23:42.545Z,489.56
2023-07-07T01:24:02.548Z,489.40
2023-07-07T01:24:12.575Z,489.39
2023-07-07T01:24:22.545Z,489.41
2023-07-07T01:24:32.562Z,489.40
2023-07-07T01:24:42.548Z,489.43
2023-07-07T01:24:52.553Z,489.35
2023-07-07T01:25:02.556Z,489.38
2023-07-07T01:25:22.550Z,489.28
2023-07-07T01:25:32.555Z,489.38
2023-07-07T01:25:42.558Z,489.38
2023-07-07T01:25:52.575Z,489.39
2023-07-07T01:26:02.551Z,489.31
2023-07-07T01:26:12.552Z,489.28
2023-07-07T01:26:22.552Z,489.37
2023-07-07T01:26:32.556Z,489.36
2023-07-07T01:26:42.561Z,489.37
2023-07-07T01:26:52.556Z,489.34
2023-07-07T01:27:02.555Z,489.32
2023-07-07T01:27:12.561Z,489.34
2023-07-07T01:27:22.569Z,489.37
2023-07-07T01:27:32.563Z,489.32
2023-07-07T01:27:42.560Z,489.38
2023-07-07T01:27:52.577Z,489.39
2023-07-07T01:28:02.566Z,489.42
2023-07-07T01:28:12.560Z,489.38
2023-07-07T01:28:32.565Z,489.42
2023-07-07T01:28:42.565Z,489.35
2023-07-07T01:28:52.565Z,489.33
2023-07-07T01:29:02.567Z,489.36
2023-07-07T01:29:12.565Z,489.35
2023-07-07T01:29:22.570Z,489.37
2023-07-07T01:29:32.573Z,489.44
2023-07-07T01:29:42.582Z,489.39
2023-07-07T01:29:52.565Z,489.44
2023-07-07T01:30:02.566Z,489.47
2023-07-07T01:30:12.574Z,489.41
2023-07-07T01:30:22.575Z,489.50
2023-07-07T01:30:32.572Z,489.41
2023-07-07T01:30:42.615Z,489.51
2023-07-07T01:30:52.584Z,489.48
2023-07-07T01:31:02.573Z,489.54
2023-07-07T01:31:12.568Z,489.56
2023-07-07T01:31:22.619Z,489.57
2023-07-07T01:31:32.602Z,489.65
2023-07-07T01:31:42.608Z,489.65
2023-07-07T01:31:52.632Z,489.72
2023-07-07T01:32:02.641Z,489.72
2023-07-07T01:32:12.578Z,489.68
2023-07-07T01:32:22.652Z,489.74
2023-07-07T01:32:32.614Z,489.72
2023-07-07T01:32:42.650Z,489.75
2023-07-07T01:32:52.626Z,489.74
2023-07-07T01:33:02.617Z,489.76
2023-07-07T01:33:12.588Z,489.71
2023-07-07T01:33:22.583Z,489.74
2023-07-07T01:33:32.613Z,489.74
2023-07-07T01:33:52.599Z,489.77
2023-07-07T01:34:02.601Z,489.79
2023-07-07T01:34:12.589Z,489.77
2023-07-07T01:34:22.580Z,489.81
2023-07-07T01:34:32.605Z,489.81
2023-07-07T01:34:42.582Z,489.77
2023-07-07T01:35:02.586Z,489.77
2023-07-07T01:35:12.588Z,489.75
2023-07-07T01:35:22.588Z,489.76
2023-07-07T01:35:32.597Z,489.78
2023-07-07T01:35:42.596Z,489.76
2023-07-07T01:35:52.599Z,489.82
2023-07-07T01:36:02.612Z,489.79
2023-07-07T01:36:12.596Z,489.80
2023-07-07T01:36:22.600Z,489.88
2023-07-07T01:36:32.590Z,489.90
2023-07-07T01:36:42.600Z,489.87
2023-07-07T01:36:52.630Z,490.01
2023-07-07T01:37:02.595Z,490.02
2023-07-07T01:37:12.622Z,490.07
2023-07-07T01:37:22.606Z,490.00
2023-07-07T01:37:32.602Z,490.08
2023-07-07T01:37:42.615Z,490.04
2023-07-07T01:38:02.623Z,490.02
2023-07-07T01:38:12.603Z,490.01
2023-07-07T01:38:22.605Z,489.99
2023-07-07T01:38:32.605Z,489.96
2023-07-07T01:38:42.596Z,490.00
2023-07-07T01:38:52.633Z,489.98
2023-07-07T01:39:02.621Z,490.02
2023-07-07T01:39:12.605Z,490.05
2023-07-07T01:39:32.600Z,490.03
2023-07-07T01:39:42.604Z,490.10
2023-07-07T01:39:52.615Z,490.10
2023-07-07T01:40:02.608Z,490.13
2023-07-07T01:40:12.612Z,490.13
2023-07-07T01:40:22.604Z,490.08
2023-07-07T01:40:32.604Z,490.16
2023-07-07T01:40:42.612Z,490.17
2023-07-07T01:40:52.618Z,490.13
2023-07-07T01:41:02.615Z,490.16
2023-07-07T01:41:12.610Z,490.14
2023-07-07T01:41:22.621Z,490.17
2023-07-07T01:41:32.627Z,490.11
2023-07-07T01:41:42.614Z,490.09
2023-07-07T01:41:52.622Z,490.08
2023-07-07T01:42:02.611Z,490.10
2023-07-07T01:42:12.605Z,490.14
2023-07-07T01:42:32.649Z,490.00
2023-07-07T01:42:42.612Z,490.01
2023-07-07T01:42:52.627Z,489.96
2023-07-07T01:43:02.631Z,489.98
2023-07-07T01:43:12.616Z,489.98
2023-07-07T01:43:22.631Z,490.08
2023-07-07T01:43:32.617Z,490.03
2023-07-07T01:43:52.617Z,489.94
2023-07-07T01:44:02.631Z,489.87
2023-07-07T01:44:12.620Z,489.85
2023-07-07T01:44:22.620Z,489.88
2023-07-07T01:44:32.614Z,489.86
2023-07-07T01:44:42.617Z,489.80
2023-07-07T01:44:52.630Z,489.84
2023-07-07T01:45:02.622Z,489.88
2023-07-07T01:45:12.619Z,489.82
2023-07-07T01:45:32.620Z,489.88
2023-07-07T01:45:42.645Z,489.95
2023-07-07T01:45:52.668Z,489.92
2023-07-07T01:46:02.706Z,489.89
2023-07-07T01:46:12.644Z,489.91
2023-07-07T01:46:22.664Z,489.93
2023-07-07T01:46:32.622Z,489.91
2023-07-07T01:46:42.789Z,489.82
2023-07-07T01:46:52.639Z,489.81
2023-07-07T01:47:02.632Z,489.89
2023-07-07T01:47:12.625Z,489.83
2023-07-07T01:47:22.673Z,489.86
2023-07-07T01:47:32.672Z,489.79
2023-07-07T01:47:42.713Z,489.85
2023-07-07T01:47:52.713Z,489.81
2023-07-07T01:48:02.670Z,489.79
2023-07-07T01:48:22.645Z,489.79
2023-07-07T01:48:32.636Z,489.87
2023-07-07T01:48:42.655Z,489.80
2023-07-07T01:48:52.636Z,489.73
2023-07-07T01:49:02.633Z,489.72
2023-07-07T01:49:12.634Z,489.71
2023-07-07T01:49:22.642Z,489.80
2023-07-07T01:49:42.658Z,489.80
2023-07-07T01:49:52.631Z,489.74
2023-07-07T01:50:02.634Z,489.79
2023-07-07T01:50:12.653Z,489.77
2023-07-07T01:50:22.640Z,489.70
2023-07-07T01:50:32.637Z,489.72
2023-07-07T01:50:42.674Z,489.64
2023-07-07T01:50:52.638Z,489.62
2023-07-07T01:51:02.641Z,489.65
2023-07-07T01:51:22.640Z,489.66
2023-07-07T01:51:32.642Z,489.64
2023-07-07T01:51:42.641Z,489.64
2023-07-07T01:51:52.650Z,489.70
2023-07-07T01:52:02.647Z,489.65
2023-07-07T01:52:12.650Z,489.70
2023-07-07T01:52:22.671Z,489.66
2023-07-07T01:52:32.653Z,489.67
2023-07-07T01:52:42.657Z,489.61
2023-07-07T01:52:52.661Z,489.61
2023-07-07T01:53:02.649Z,489.65
2023-07-07T01:53:22.659Z,489.68
2023-07-07T01:53:32.657Z,489.66
2023-07-07T01:53:42.655Z,489.73
2023-07-07T01:53:52.652Z,489.64
2023-07-07T01:54:02.687Z,489.69
2023-07-07T01:54:12.654Z,489.67
2023-07-07T01:54:22.653Z,489.62
2023-07-07T01:54:42.683Z,489.70
2023-07-07T01:54:52.651Z,489.66
2023-07-07T01:55:02.654Z,489.75
2023-07-07T01:55:12.656Z,489.77
2023-07-07T01:55:22.658Z,489.76
2023-07-07T01:55:32.663Z,489.75
2023-07-07T01:55:52.660Z,489.64
2023-07-07T01:56:02.662Z,489.67
2023-07-07T01:56:12.668Z,489.70
2023-07-07T01:56:22.660Z,489.69
2023-07-07T01:56:32.663Z,489.64
2023-07-07T01:56:42.662Z,489.65
2023-07-07T01:56:52.671Z,489.63
2023-07-07T01:57:12.677Z,489.57
2023-07-07T01:57:22.676Z,489.61
2023-07-07T01:57:32.673Z,489.59
2023-07-07T01:57:42.679Z,489.56
2023-07-07T01:57:52.679Z,489.56
2023-07-07T01:58:02.671Z,489.64
2023-07-07T01:58:12.700Z,489.59
2023-07-07T01:58:22.670Z,489.65
2023-07-07T01:58:32.689Z,489.65
2023-07-07T01:58:42.686Z,489.65
2023-07-07T01:59:02.659Z,489.65
2023-07-07T01:59:12.699Z,489.70
2023-07-07T01:59:22.672Z,489.65
2023-07-07T01:59:32.678Z,489.68
2023-07-07T01:59:42.689Z,489.71
2023-07-07T01:59:52.679Z,489.68
2023-07-07T02:00:02.678Z,489.65
2023-07-07T02:00:22.686Z,489.71
2023-07-07T02:00:32.701Z,489.79
2023-07-07T02:00:42.683Z,489.75
2023-07-07T02:00:52.690Z,489.86
2023-07-07T02:01:02.748Z,489.82
2023-07-07T02:01:12.752Z,489.87
2023-07-07T02:01:22.722Z,489.91
2023-07-07T02:01:32.732Z,489.89
2023-07-07T02:01:42.709Z,489.97
2023-07-07T02:01:52.745Z,489.95
2023-07-07T02:02:12.686Z,490.11
2023-07-07T02:02:22.805Z,490.05
2023-07-07T02:02:32.769Z,490.07
2023-07-07T02:02:42.719Z,490.09
2023-07-07T02:02:52.762Z,490.10
2023-07-07T02:03:02.711Z,490.09
2023-07-07T02:03:12.711Z,490.08
2023-07-07T02:03:22.704Z,490.12
2023-07-07T02:03:32.693Z,490.09
2023-07-07T02:03:42.702Z,490.11
2023-07-07T02:04:02.711Z,490.11
2023-07-07T02:04:12.705Z,490.11
2023-07-07T02:04:22.814Z,490.08
2023-07-07T02:04:32.720Z,490.15
2023-07-07T02:04:42.717Z,490.11
2023-07-07T02:04:52.713Z,490.11
2023-07-07T02:05:02.759Z,490.16
2023-07-07T02:05:12.724Z,490.16
2023-07-07T02:05:22.720Z,490.18
2023-07-07T02:05:33.327Z,490.22
2023-07-07T02:05:42.699Z,490.23
2023-07-07T02:05:52.699Z,490.16
2023-07-07T02:06:02.709Z,490.18
2023-07-07T02:06:12.705Z,490.14
2023-07-07T02:06:22.701Z,490.20
2023-07-07T02:06:42.713Z,490.12
2023-07-07T02:06:52.704Z,490.15
2023-07-07T02:07:02.714Z,490.19
2023-07-07T02:07:12.722Z,490.16
2023-07-07T02:07:22.707Z,490.10
2023-07-07T02:07:32.717Z,490.15
2023-07-07T02:07:42.710Z,490.13
2023-07-07T02:07:52.703Z,490.05
2023-07-07T02:08:02.708Z,490.12
2023-07-07T02:08:12.707Z,490.03
2023-07-07T02:08:22.728Z,489.98
2023-07-07T02:08:32.739Z,490.03
2023-07-07T02:08:42.712Z,490.00
2023-07-07T02:08:52.734Z,490.10
2023-07-07T02:09:12.714Z,490.13
2023-07-07T02:09:22.732Z,490.06
2023-07-07T02:09:32.719Z,490.14
2023-07-07T02:09:58.361Z,490.12
2023-07-07T02:09:58.645Z,490.14
2023-07-07T02:10:08.661Z,490.16
2023-07-07T02:10:18.612Z,490.12
2023-07-07T02:10:28.638Z,490.13
2023-07-07T02:10:38.621Z,490.18
2023-07-07T02:10:58.995Z,490.22
2023-07-07T02:11:08.618Z,490.16
2023-07-07T02:11:18.636Z,490.23
2023-07-07T02:11:28.602Z,490.19
2023-07-07T02:11:38.603Z,490.23
2023-07-07T02:11:48.615Z,490.25
2023-07-07T02:11:58.604Z,490.25
2023-07-07T02:12:08.600Z,490.30
2023-07-07T02:12:18.609Z,490.31
2023-07-07T02:12:28.607Z,490.25
2023-07-07T02:12:38.611Z,490.30
2023-07-07T02:12:48.632Z,490.26
2023-07-07T02:12:58.616Z,490.20
2023-07-07T02:13:08.628Z,490.19
2023-07-07T02:13:18.654Z,490.14
2023-07-07T02:13:28.642Z,490.15
2023-07-07T02:13:38.619Z,490.20
2023-07-07T02:13:48.661Z,490.24
2023-07-07T02:14:08.649Z,490.20
2023-07-07T02:14:18.636Z,490.20
2023-07-07T02:14:28.613Z,490.27
2023-07-07T02:14:38.668Z,490.21
2023-07-07T02:14:48.609Z,490.27
2023-07-07T02:14:58.659Z,490.22
2023-07-07T02:15:08.632Z,490.24
2023-07-07T02:15:18.684Z,490.24
2023-07-07T02:15:28.689Z,490.20
2023-07-07T02:15:38.685Z,490.26
2023-07-07T02:15:48.676Z,490.27